sensor_id;sensor_type;location;lat;lon;timestamp;temperature;humidity
70051;SHT30;57391;51.306;22.680;2023-02-01T00:01:08;1.87;86.12
70051;SHT30;57391;51.306;22.680;2023-02-01T00:03:36;1.86;86.21
70051;SHT30;57391;51.306;22.680;2023-02-01T00:06:03;1.83;86.30
70051;SHT30;57391;51.306;22.680;2023-02-01T00:08:30;1.80;86.43
70051;SHT30;57391;51.306;22.680;2023-02-01T00:10:59;1.78;86.54
70051;SHT30;57391;51.306;22.680;2023-02-01T00:13:31;1.77;86.66
70051;SHT30;57391;51.306;22.680;2023-02-01T00:16:08;1.75;86.84
70051;SHT30;57391;51.306;22.680;2023-02-01T00:18:46;1.72;87.21
70051;SHT30;57391;51.306;22.680;2023-02-01T00:21:17;1.68;87.58
70051;SHT30;57391;51.306;22.680;2023-02-01T00:23:47;1.66;88.21
70051;SHT30;57391;51.306;22.680;2023-02-01T00:26:16;1.63;88.50
70051;SHT30;57391;51.306;22.680;2023-02-01T00:28:45;1.61;88.54
70051;SHT30;57391;51.306;22.680;2023-02-01T00:31:12;1.60;88.40
70051;SHT30;57391;51.306;22.680;2023-02-01T00:33:41;1.60;88.30
70051;SHT30;57391;51.306;22.680;2023-02-01T00:36:08;1.61;88.16
70051;SHT30;57391;51.306;22.680;2023-02-01T00:38:37;1.62;88.13
70051;SHT30;57391;51.306;22.680;2023-02-01T00:41:27;1.60;88.10
70051;SHT30;57391;51.306;22.680;2023-02-01T00:43:53;1.62;88.05
70051;SHT30;57391;51.306;22.680;2023-02-01T00:46:20;1.61;87.99
70051;SHT30;57391;51.306;22.680;2023-02-01T00:48:49;1.61;87.98
70051;SHT30;57391;51.306;22.680;2023-02-01T00:51:18;1.63;87.91
70051;SHT30;57391;51.306;22.680;2023-02-01T00:53:56;1.66;87.85
70051;SHT30;57391;51.306;22.680;2023-02-01T00:56:23;1.69;87.80
70051;SHT30;57391;51.306;22.680;2023-02-01T00:58:51;1.73;87.73
70051;SHT30;57391;51.306;22.680;2023-02-01T01:04:47;1.80;87.55
70051;SHT30;57391;51.306;22.680;2023-02-01T01:07:15;1.84;87.49
70051;SHT30;57391;51.306;22.680;2023-02-01T01:09:42;1.87;87.41
70051;SHT30;57391;51.306;22.680;2023-02-01T01:12:11;1.90;87.39
70051;SHT30;57391;51.306;22.680;2023-02-01T01:14:38;1.92;87.30
70051;SHT30;57391;51.306;22.680;2023-02-01T01:17:06;1.95;87.29
70051;SHT30;57391;51.306;22.680;2023-02-01T01:19:32;1.97;87.24
70051;SHT30;57391;51.306;22.680;2023-02-01T01:22:00;1.97;87.27
70051;SHT30;57391;51.306;22.680;2023-02-01T01:24:26;1.98;87.30
70051;SHT30;57391;51.306;22.680;2023-02-01T01:26:54;2.00;87.30
70051;SHT30;57391;51.306;22.680;2023-02-01T01:29:21;2.00;87.33
70051;SHT30;57391;51.306;22.680;2023-02-01T01:31:48;2.00;87.30
70051;SHT30;57391;51.306;22.680;2023-02-01T01:34:16;2.00;87.26
70051;SHT30;57391;51.306;22.680;2023-02-01T01:36:43;1.99;87.22
70051;SHT30;57391;51.306;22.680;2023-02-01T01:39:10;1.98;87.22
70051;SHT30;57391;51.306;22.680;2023-02-01T01:41:37;1.97;87.24
70051;SHT30;57391;51.306;22.680;2023-02-01T01:47:29;1.91;87.42
70051;SHT30;57391;51.306;22.680;2023-02-01T01:50:08;1.92;87.50
70051;SHT30;57391;51.306;22.680;2023-02-01T01:52:40;1.93;87.50
70051;SHT30;57391;51.306;22.680;2023-02-01T01:55:11;1.96;87.60
70051;SHT30;57391;51.306;22.680;2023-02-01T01:57:42;1.96;87.59
70051;SHT30;57391;51.306;22.680;2023-02-01T02:00:18;1.98;87.61
70051;SHT30;57391;51.306;22.680;2023-02-01T02:02:48;1.99;87.59
70051;SHT30;57391;51.306;22.680;2023-02-01T02:05:23;2.02;87.58
70051;SHT30;57391;51.306;22.680;2023-02-01T02:07:52;2.04;87.58
70051;SHT30;57391;51.306;22.680;2023-02-01T02:10:24;2.09;87.61
70051;SHT30;57391;51.306;22.680;2023-02-01T02:13:12;2.11;87.57
70051;SHT30;57391;51.306;22.680;2023-02-01T02:15:43;2.13;87.56
70051;SHT30;57391;51.306;22.680;2023-02-01T02:28:13;2.26;87.33
70051;SHT30;57391;51.306;22.680;2023-02-01T02:39:48;2.33;87.23
70051;SHT30;57391;51.306;22.680;2023-02-01T02:51:20;2.47;86.89
70051;SHT30;57391;51.306;22.680;2023-02-01T02:54:15;2.50;86.80
70051;SHT30;57391;51.306;22.680;2023-02-01T02:57:14;2.55;86.66
70051;SHT30;57391;51.306;22.680;2023-02-01T03:00:09;2.58;86.53
70051;SHT30;57391;51.306;22.680;2023-02-01T03:03:01;2.60;86.50
70051;SHT30;57391;51.306;22.680;2023-02-01T03:05:47;2.61;86.50
70051;SHT30;57391;51.306;22.680;2023-02-01T03:08:24;2.60;86.50
70051;SHT30;57391;51.306;22.680;2023-02-01T03:11:04;2.61;86.56
70051;SHT30;57391;51.306;22.680;2023-02-01T03:13:38;2.62;86.57
70051;SHT30;57391;51.306;22.680;2023-02-01T03:19:39;2.62;86.45
70051;SHT30;57391;51.306;22.680;2023-02-01T03:22:20;2.62;86.29
70051;SHT30;57391;51.306;22.680;2023-02-01T03:24:54;2.64;86.14
70051;SHT30;57391;51.306;22.680;2023-02-01T03:27:30;2.64;86.02
70051;SHT30;57391;51.306;22.680;2023-02-01T03:30:07;2.65;85.93
70051;SHT30;57391;51.306;22.680;2023-02-01T03:32:46;2.66;85.85
70051;SHT30;57391;51.306;22.680;2023-02-01T03:35:33;2.67;85.82
70051;SHT30;57391;51.306;22.680;2023-02-01T03:43:39;2.68;86.00
70051;SHT30;57391;51.306;22.680;2023-02-01T03:46:57;2.69;86.00
70051;SHT30;57391;51.306;22.680;2023-02-01T03:49:51;2.67;86.04
70051;SHT30;57391;51.306;22.680;2023-02-01T03:52:36;2.66;86.10
70051;SHT30;57391;51.306;22.680;2023-02-01T03:55:12;2.64;86.12
70051;SHT30;57391;51.306;22.680;2023-02-01T03:57:46;2.63;86.09
70051;SHT30;57391;51.306;22.680;2023-02-01T04:00:37;2.57;86.00
70051;SHT30;57391;51.306;22.680;2023-02-01T04:03:06;2.53;86.01
70051;SHT30;57391;51.306;22.680;2023-02-01T04:05:33;2.48;86.00
70051;SHT30;57391;51.306;22.680;2023-02-01T04:08:03;2.43;86.04
70051;SHT30;57391;51.306;22.680;2023-02-01T04:10:31;2.39;86.14
70051;SHT30;57391;51.306;22.680;2023-02-01T04:12:59;2.39;86.18
70051;SHT30;57391;51.306;22.680;2023-02-01T04:15:26;2.37;86.20
70051;SHT30;57391;51.306;22.680;2023-02-01T04:17:53;2.36;86.20
70051;SHT30;57391;51.306;22.680;2023-02-01T04:20:21;2.37;86.26
70051;SHT30;57391;51.306;22.680;2023-02-01T04:22:48;2.38;86.31
70051;SHT30;57391;51.306;22.680;2023-02-01T04:25:14;2.40;86.30
70051;SHT30;57391;51.306;22.680;2023-02-01T04:27:46;2.40;86.30
70051;SHT30;57391;51.306;22.680;2023-02-01T04:30:13;2.43;86.24
70051;SHT30;57391;51.306;22.680;2023-02-01T04:32:42;2.44;86.20
70051;SHT30;57391;51.306;22.680;2023-02-01T04:35:09;2.43;86.12
70051;SHT30;57391;51.306;22.680;2023-02-01T04:37:36;2.44;86.10
70051;SHT30;57391;51.306;22.680;2023-02-01T04:40:03;2.46;86.02
70051;SHT30;57391;51.306;22.680;2023-02-01T04:42:31;2.44;85.94
70051;SHT30;57391;51.306;22.680;2023-02-01T04:44:58;2.44;85.95
70051;SHT30;57391;51.306;22.680;2023-02-01T04:47:25;2.45;85.94
70051;SHT30;57391;51.306;22.680;2023-02-01T04:49:52;2.45;85.90
70051;SHT30;57391;51.306;22.680;2023-02-01T04:52:19;2.48;85.90
70051;SHT30;57391;51.306;22.680;2023-02-01T04:54:46;2.49;85.82
70051;SHT30;57391;51.306;22.680;2023-02-01T04:57:13;2.49;85.74
70051;SHT30;57391;51.306;22.680;2023-02-01T04:59:41;2.50;85.70
70051;SHT30;57391;51.306;22.680;2023-02-01T05:02:08;2.52;85.66
70051;SHT30;57391;51.306;22.680;2023-02-01T05:04:35;2.54;85.51
70051;SHT30;57391;51.306;22.680;2023-02-01T05:07:02;2.54;85.39
70051;SHT30;57391;51.306;22.680;2023-02-01T05:09:29;2.55;85.31
70051;SHT30;57391;51.306;22.680;2023-02-01T05:11:56;2.56;85.24
70051;SHT30;57391;51.306;22.680;2023-02-01T05:14:42;2.58;85.20
70051;SHT30;57391;51.306;22.680;2023-02-01T05:17:09;2.58;85.17
70051;SHT30;57391;51.306;22.680;2023-02-01T05:19:36;2.58;85.10
70051;SHT30;57391;51.306;22.680;2023-02-01T05:22:03;2.59;85.01
70051;SHT30;57391;51.306;22.680;2023-02-01T05:24:30;2.60;84.91
70051;SHT30;57391;51.306;22.680;2023-02-01T05:26:57;2.63;84.85
70051;SHT30;57391;51.306;22.680;2023-02-01T05:29:24;2.62;84.74
70051;SHT30;57391;51.306;22.680;2023-02-01T05:31:51;2.62;84.65
70051;SHT30;57391;51.306;22.680;2023-02-01T05:34:18;2.63;84.51
70051;SHT30;57391;51.306;22.680;2023-02-01T05:36:45;2.62;84.49
70051;SHT30;57391;51.306;22.680;2023-02-01T05:39:13;2.60;84.36
70051;SHT30;57391;51.306;22.680;2023-02-01T05:41:40;2.59;84.35
70051;SHT30;57391;51.306;22.680;2023-02-01T05:44:07;2.57;84.33
70051;SHT30;57391;51.306;22.680;2023-02-01T05:46:35;2.56;84.30
70051;SHT30;57391;51.306;22.680;2023-02-01T05:49:03;2.55;84.26
70051;SHT30;57391;51.306;22.680;2023-02-01T05:51:31;2.54;84.25
70051;SHT30;57391;51.306;22.680;2023-02-01T05:53:59;2.53;84.29
70051;SHT30;57391;51.306;22.680;2023-02-01T05:56:26;2.51;84.21
70051;SHT30;57391;51.306;22.680;2023-02-01T05:58:53;2.50;84.21
70051;SHT30;57391;51.306;22.680;2023-02-01T06:01:20;2.48;84.23
70051;SHT30;57391;51.306;22.680;2023-02-01T06:03:47;2.48;84.30
70051;SHT30;57391;51.306;22.680;2023-02-01T06:06:14;2.50;84.28
70051;SHT30;57391;51.306;22.680;2023-02-01T06:08:42;2.52;84.20
70051;SHT30;57391;51.306;22.680;2023-02-01T06:11:09;2.54;84.19
70051;SHT30;57391;51.306;22.680;2023-02-01T06:13:35;2.56;84.11
70051;SHT30;57391;51.306;22.680;2023-02-01T06:16:05;2.58;84.02
70051;SHT30;57391;51.306;22.680;2023-02-01T06:18:34;2.61;83.90
70051;SHT30;57391;51.306;22.680;2023-02-01T06:21:02;2.62;83.89
70051;SHT30;57391;51.306;22.680;2023-02-01T06:23:29;2.63;83.83
70051;SHT30;57391;51.306;22.680;2023-02-01T06:25:58;2.65;83.75
70051;SHT30;57391;51.306;22.680;2023-02-01T06:28:30;2.68;83.62
70051;SHT30;57391;51.306;22.680;2023-02-01T06:31:02;2.69;83.52
70051;SHT30;57391;51.306;22.680;2023-02-01T06:33:33;2.70;83.44
70051;SHT30;57391;51.306;22.680;2023-02-01T06:36:02;2.72;83.25
70051;SHT30;57391;51.306;22.680;2023-02-01T06:38:32;2.74;83.15
70051;SHT30;57391;51.306;22.680;2023-02-01T06:41:03;2.75;83.04
70051;SHT30;57391;51.306;22.680;2023-02-01T06:43:31;2.76;83.02
70051;SHT30;57391;51.306;22.680;2023-02-01T06:46:01;2.78;83.01
70051;SHT30;57391;51.306;22.680;2023-02-01T06:48:31;2.81;82.98
70051;SHT30;57391;51.306;22.680;2023-02-01T06:50:59;2.81;82.87
70051;SHT30;57391;51.306;22.680;2023-02-01T06:53:26;2.83;82.82
70051;SHT30;57391;51.306;22.680;2023-02-01T06:55:54;2.83;82.80
70051;SHT30;57391;51.306;22.680;2023-02-01T06:58:30;2.84;82.74
70051;SHT30;57391;51.306;22.680;2023-02-01T07:01:05;2.86;82.71
70051;SHT30;57391;51.306;22.680;2023-02-01T07:03:34;2.88;82.42
70051;SHT30;57391;51.306;22.680;2023-02-01T07:06:02;2.89;82.45
70051;SHT30;57391;51.306;22.680;2023-02-01T07:08:31;2.91;82.30
70051;SHT30;57391;51.306;22.680;2023-02-01T07:11:05;2.94;82.28
70051;SHT30;57391;51.306;22.680;2023-02-01T07:13:35;2.96;82.10
70051;SHT30;57391;51.306;22.680;2023-02-01T07:16:03;2.99;82.07
70051;SHT30;57391;51.306;22.680;2023-02-01T07:18:35;3.02;82.14
70051;SHT30;57391;51.306;22.680;2023-02-01T07:21:02;3.05;82.05
70051;SHT30;57391;51.306;22.680;2023-02-01T07:23:29;3.07;81.99
70051;SHT30;57391;51.306;22.680;2023-02-01T07:25:58;3.11;81.97
70051;SHT30;57391;51.306;22.680;2023-02-01T07:28:30;3.13;81.94
70051;SHT30;57391;51.306;22.680;2023-02-01T07:31:03;3.15;81.69
70051;SHT30;57391;51.306;22.680;2023-02-01T07:33:36;3.16;81.46
70051;SHT30;57391;51.306;22.680;2023-02-01T07:36:04;3.17;81.46
70051;SHT30;57391;51.306;22.680;2023-02-01T07:38:36;3.22;81.35
70051;SHT30;57391;51.306;22.680;2023-02-01T07:41:04;3.24;81.18
70051;SHT30;57391;51.306;22.680;2023-02-01T07:43:32;3.26;80.78
70051;SHT30;57391;51.306;22.680;2023-02-01T07:45:59;3.30;80.79
70051;SHT30;57391;51.306;22.680;2023-02-01T07:48:27;3.47;80.53
70051;SHT30;57391;51.306;22.680;2023-02-01T07:53:29;3.67;79.90
70051;SHT30;57391;51.306;22.680;2023-02-01T07:55:58;3.68;79.83
70051;SHT30;57391;51.306;22.680;2023-02-01T07:58:26;3.70;79.73
70051;SHT30;57391;51.306;22.680;2023-02-01T08:00:54;3.69;79.55
70051;SHT30;57391;51.306;22.680;2023-02-01T08:03:40;3.69;79.48
70051;SHT30;57391;51.306;22.680;2023-02-01T08:06:07;3.67;79.43
70051;SHT30;57391;51.306;22.680;2023-02-01T08:08:34;3.66;79.44
70051;SHT30;57391;51.306;22.680;2023-02-01T08:11:02;3.65;79.35
70051;SHT30;57391;51.306;22.680;2023-02-01T08:13:32;3.65;79.29
70051;SHT30;57391;51.306;22.680;2023-02-01T08:16:03;3.65;79.22
70051;SHT30;57391;51.306;22.680;2023-02-01T08:18:33;3.68;79.38
70051;SHT30;57391;51.306;22.680;2023-02-01T08:23:32;3.71;79.19
70051;SHT30;57391;51.306;22.680;2023-02-01T08:26:07;3.72;78.84
70051;SHT30;57391;51.306;22.680;2023-02-01T08:28:44;3.76;79.01
70051;SHT30;57391;51.306;22.680;2023-02-01T08:31:15;3.82;79.00
70051;SHT30;57391;51.306;22.680;2023-02-01T08:33:48;3.88;78.77
70051;SHT30;57391;51.306;22.680;2023-02-01T08:36:19;3.92;78.33
70051;SHT30;57391;51.306;22.680;2023-02-01T08:38:47;3.91;78.26
70051;SHT30;57391;51.306;22.680;2023-02-01T08:41:17;3.89;78.07
70051;SHT30;57391;51.306;22.680;2023-02-01T08:43:50;3.88;78.04
70051;SHT30;57391;51.306;22.680;2023-02-01T08:46:20;3.87;78.14
70051;SHT30;57391;51.306;22.680;2023-02-01T08:48:49;3.90;78.48
70051;SHT30;57391;51.306;22.680;2023-02-01T08:51:17;3.93;78.37
70051;SHT30;57391;51.306;22.680;2023-02-01T08:53:47;3.97;78.50
70051;SHT30;57391;51.306;22.680;2023-02-01T08:56:16;3.99;78.18
70051;SHT30;57391;51.306;22.680;2023-02-01T08:58:45;4.01;77.87
70051;SHT30;57391;51.306;22.680;2023-02-01T09:01:14;4.01;77.75
70051;SHT30;57391;51.306;22.680;2023-02-01T09:03:43;4.01;77.76
70051;SHT30;57391;51.306;22.680;2023-02-01T09:06:11;4.03;77.50
70051;SHT30;57391;51.306;22.680;2023-02-01T09:08:40;4.05;77.23
70051;SHT30;57391;51.306;22.680;2023-02-01T09:11:10;4.08;77.50
70051;SHT30;57391;51.306;22.680;2023-02-01T09:13:41;4.11;77.19
70051;SHT30;57391;51.306;22.680;2023-02-01T09:16:09;4.14;76.50
70051;SHT30;57391;51.306;22.680;2023-02-01T09:18:35;4.15;76.60
70051;SHT30;57391;51.306;22.680;2023-02-01T09:21:08;4.15;76.35
70051;SHT30;57391;51.306;22.680;2023-02-01T09:23:36;4.16;76.71
70051;SHT30;57391;51.306;22.680;2023-02-01T09:26:03;4.16;76.46
70051;SHT30;57391;51.306;22.680;2023-02-01T09:28:31;4.20;76.58
70051;SHT30;57391;51.306;22.680;2023-02-01T09:30:59;4.24;76.50
70051;SHT30;57391;51.306;22.680;2023-02-01T09:33:28;4.31;76.70
70051;SHT30;57391;51.306;22.680;2023-02-01T09:35:56;4.38;76.68
70051;SHT30;57391;51.306;22.680;2023-02-01T09:38:30;4.43;76.61
70051;SHT30;57391;51.306;22.680;2023-02-01T09:40:58;4.46;76.53
70051;SHT30;57391;51.306;22.680;2023-02-01T09:43:47;4.49;76.06
70051;SHT30;57391;51.306;22.680;2023-02-01T09:46:30;4.48;75.84
70051;SHT30;57391;51.306;22.680;2023-02-01T09:49:01;4.47;75.57
70051;SHT30;57391;51.306;22.680;2023-02-01T09:51:40;4.45;75.38
70051;SHT30;57391;51.306;22.680;2023-02-01T09:54:20;4.44;75.31
70051;SHT30;57391;51.306;22.680;2023-02-01T09:56:59;4.44;75.55
70051;SHT30;57391;51.306;22.680;2023-02-01T09:59:38;4.45;75.62
70051;SHT30;57391;51.306;22.680;2023-02-01T10:02:12;4.43;75.11
70051;SHT30;57391;51.306;22.680;2023-02-01T10:04:45;4.42;74.90
70051;SHT30;57391;51.306;22.680;2023-02-01T10:10:18;4.43;75.16
70051;SHT30;57391;51.306;22.680;2023-02-01T10:13:13;4.43;75.15
70051;SHT30;57391;51.306;22.680;2023-02-01T10:27:55;4.39;77.70
70051;SHT30;57391;51.306;22.680;2023-02-01T10:30:27;4.41;78.54
70051;SHT30;57391;51.306;22.680;2023-02-01T10:33:15;4.39;78.64
70051;SHT30;57391;51.306;22.680;2023-02-01T10:35:48;4.34;78.95
70051;SHT30;57391;51.306;22.680;2023-02-01T10:38:26;4.35;79.47
70051;SHT30;57391;51.306;22.680;2023-02-01T10:41:01;4.36;79.74
70051;SHT30;57391;51.306;22.680;2023-02-01T10:43:37;4.39;79.90
70051;SHT30;57391;51.306;22.680;2023-02-01T10:46:06;4.43;80.11
70051;SHT30;57391;51.306;22.680;2023-02-01T10:48:34;4.48;79.99
70051;SHT30;57391;51.306;22.680;2023-02-01T10:51:06;4.52;79.59
70051;SHT30;57391;51.306;22.680;2023-02-01T10:53:50;4.55;79.46
70051;SHT30;57391;51.306;22.680;2023-02-01T10:56:26;4.57;79.29
70051;SHT30;57391;51.306;22.680;2023-02-01T10:59:02;4.59;79.40
70051;SHT30;57391;51.306;22.680;2023-02-01T11:01:39;4.61;79.25
70051;SHT30;57391;51.306;22.680;2023-02-01T11:04:15;4.61;79.14
70051;SHT30;57391;51.306;22.680;2023-02-01T11:09:50;4.57;78.66
70051;SHT30;57391;51.306;22.680;2023-02-01T11:12:31;4.60;78.43
70051;SHT30;57391;51.306;22.680;2023-02-01T11:17:51;4.67;77.42
70051;SHT30;57391;51.306;22.680;2023-02-01T11:20:32;4.71;77.30
70051;SHT30;57391;51.306;22.680;2023-02-01T11:23:14;4.74;77.17
70051;SHT30;57391;51.306;22.680;2023-02-01T11:25:51;4.77;76.38
70051;SHT30;57391;51.306;22.680;2023-02-01T11:28:28;4.79;75.97
70051;SHT30;57391;51.306;22.680;2023-02-01T11:31:04;4.80;75.77
70051;SHT30;57391;51.306;22.680;2023-02-01T11:33:38;4.79;75.25
70051;SHT30;57391;51.306;22.680;2023-02-01T11:36:17;4.76;75.20
70051;SHT30;57391;51.306;22.680;2023-02-01T11:44:41;4.63;74.46
70051;SHT30;57391;51.306;22.680;2023-02-01T11:49:48;4.59;74.59
70051;SHT30;57391;51.306;22.680;2023-02-01T11:55:15;4.68;75.00
70051;SHT30;57391;51.306;22.680;2023-02-01T12:06:59;4.95;74.71
70051;SHT30;57391;51.306;22.680;2023-02-01T12:10:04;4.96;74.30
70051;SHT30;57391;51.306;22.680;2023-02-01T12:26:02;4.92;74.62
70051;SHT30;57391;51.306;22.680;2023-02-01T12:28:42;4.85;74.89
70051;SHT30;57391;51.306;22.680;2023-02-01T12:34:24;4.63;76.28
70051;SHT30;57391;51.306;22.680;2023-02-01T12:43:01;4.82;76.90
70051;SHT30;57391;51.306;22.680;2023-02-01T12:45:34;4.91;76.50
70051;SHT30;57391;51.306;22.680;2023-02-01T12:51:01;5.13;75.77
70051;SHT30;57391;51.306;22.680;2023-02-01T12:53:44;5.14;75.20
70051;SHT30;57391;51.306;22.680;2023-02-01T12:56:20;5.11;75.11
70051;SHT30;57391;51.306;22.680;2023-02-01T12:58:56;5.07;75.30
70051;SHT30;57391;51.306;22.680;2023-02-01T13:04:30;5.01;75.23
70051;SHT30;57391;51.306;22.680;2023-02-01T13:07:09;4.96;75.04
70051;SHT30;57391;51.306;22.680;2023-02-01T13:15:30;4.88;75.20
70051;SHT30;57391;51.306;22.680;2023-02-01T13:18:06;4.86;75.24
70051;SHT30;57391;51.306;22.680;2023-02-01T13:20:53;4.84;75.45
70051;SHT30;57391;51.306;22.680;2023-02-01T13:23:31;4.84;75.17
70051;SHT30;57391;51.306;22.680;2023-02-01T13:26:04;4.82;75.24
70051;SHT30;57391;51.306;22.680;2023-02-01T13:28:34;4.81;75.37
70051;SHT30;57391;51.306;22.680;2023-02-01T13:37:23;4.72;75.70
70051;SHT30;57391;51.306;22.680;2023-02-01T13:43:13;4.68;76.27
70051;SHT30;57391;51.306;22.680;2023-02-01T13:45:56;4.64;76.68
70051;SHT30;57391;51.306;22.680;2023-02-01T13:48:41;4.62;76.86
70051;SHT30;57391;51.306;22.680;2023-02-01T13:54:03;4.56;76.95
70051;SHT30;57391;51.306;22.680;2023-02-01T13:56:39;4.52;77.11
70051;SHT30;57391;51.306;22.680;2023-02-01T13:59:54;4.47;77.03
70051;SHT30;57391;51.306;22.680;2023-02-01T14:10:50;4.36;77.37
70051;SHT30;57391;51.306;22.680;2023-02-01T14:13:30;4.33;77.38
70051;SHT30;57391;51.306;22.680;2023-02-01T14:24:25;4.20;77.35
70051;SHT30;57391;51.306;22.680;2023-02-01T14:27:01;4.15;77.51
70051;SHT30;57391;51.306;22.680;2023-02-01T14:29:50;4.12;77.72
70051;SHT30;57391;51.306;22.680;2023-02-01T14:32:31;4.12;77.72
70051;SHT30;57391;51.306;22.680;2023-02-01T14:35:12;4.12;77.86
70051;SHT30;57391;51.306;22.680;2023-02-01T14:37:47;4.12;77.97
70051;SHT30;57391;51.306;22.680;2023-02-01T14:40:23;4.10;78.16
70051;SHT30;57391;51.306;22.680;2023-02-01T14:42:54;4.09;78.22
70051;SHT30;57391;51.306;22.680;2023-02-01T15:01:36;4.09;77.96
70051;SHT30;57391;51.306;22.680;2023-02-01T15:04:13;4.09;78.02
70051;SHT30;57391;51.306;22.680;2023-02-01T15:06:52;4.09;77.97
70051;SHT30;57391;51.306;22.680;2023-02-01T15:09:24;4.06;77.95
70051;SHT30;57391;51.306;22.680;2023-02-01T15:17:53;4.04;77.74
70051;SHT30;57391;51.306;22.680;2023-02-01T15:20:25;4.03;77.70
70051;SHT30;57391;51.306;22.680;2023-02-01T15:25:35;4.02;77.67
70051;SHT30;57391;51.306;22.680;2023-02-01T15:28:05;4.01;77.61
70051;SHT30;57391;51.306;22.680;2023-02-01T15:30:40;4.01;77.62
70051;SHT30;57391;51.306;22.680;2023-02-01T15:33:31;4.02;77.70
70051;SHT30;57391;51.306;22.680;2023-02-01T15:36:07;4.02;77.70
70051;SHT30;57391;51.306;22.680;2023-02-01T15:38:42;4.01;77.64
70051;SHT30;57391;51.306;22.680;2023-02-01T15:41:12;4.00;77.62
70051;SHT30;57391;51.306;22.680;2023-02-01T15:46:35;4.01;77.78
70051;SHT30;57391;51.306;22.680;2023-02-01T15:49:43;4.01;78.17
70051;SHT30;57391;51.306;22.680;2023-02-01T15:52:29;4.00;78.56
70051;SHT30;57391;51.306;22.680;2023-02-01T15:58:07;3.94;78.72
70051;SHT30;57391;51.306;22.680;2023-02-01T16:00:46;3.91;78.82
70051;SHT30;57391;51.306;22.680;2023-02-01T16:06:08;3.83;79.08
70051;SHT30;57391;51.306;22.680;2023-02-01T16:08:52;3.82;78.95
70051;SHT30;57391;51.306;22.680;2023-02-01T16:11:29;3.82;78.91
70051;SHT30;57391;51.306;22.680;2023-02-01T16:13:59;3.81;78.77
70051;SHT30;57391;51.306;22.680;2023-02-01T16:16:28;3.81;78.74
70051;SHT30;57391;51.306;22.680;2023-02-01T16:18:56;3.80;78.72
70051;SHT30;57391;51.306;22.680;2023-02-01T16:21:23;3.79;78.71
70051;SHT30;57391;51.306;22.680;2023-02-01T16:23:51;3.79;78.60
70051;SHT30;57391;51.306;22.680;2023-02-01T16:26:20;3.77;78.60
70051;SHT30;57391;51.306;22.680;2023-02-01T16:28:47;3.76;78.60
70051;SHT30;57391;51.306;22.680;2023-02-01T16:31:15;3.74;78.58
70051;SHT30;57391;51.306;22.680;2023-02-01T16:33:50;3.73;78.68
70051;SHT30;57391;51.306;22.680;2023-02-01T16:36:18;3.73;78.80
70051;SHT30;57391;51.306;22.680;2023-02-01T16:38:45;3.74;78.79
70051;SHT30;57391;51.306;22.680;2023-02-01T16:41:16;3.76;78.75
70051;SHT30;57391;51.306;22.680;2023-02-01T16:43:50;3.78;78.74
70051;SHT30;57391;51.306;22.680;2023-02-01T16:46:21;3.79;78.79
70051;SHT30;57391;51.306;22.680;2023-02-01T16:48:54;3.80;78.82
70051;SHT30;57391;51.306;22.680;2023-02-01T16:51:25;3.81;78.86
70051;SHT30;57391;51.306;22.680;2023-02-01T16:53:59;3.81;78.89
70051;SHT30;57391;51.306;22.680;2023-02-01T16:56:31;3.81;78.98
70051;SHT30;57391;51.306;22.680;2023-02-01T16:59:02;3.82;78.98
70051;SHT30;57391;51.306;22.680;2023-02-01T17:01:29;3.82;79.00
70051;SHT30;57391;51.306;22.680;2023-02-01T17:03:56;3.84;79.08
70051;SHT30;57391;51.306;22.680;2023-02-01T17:06:24;3.84;79.10
70051;SHT30;57391;51.306;22.680;2023-02-01T17:08:54;3.84;79.21
70051;SHT30;57391;51.306;22.680;2023-02-01T17:11:27;3.81;79.33
70051;SHT30;57391;51.306;22.680;2023-02-01T17:13:57;3.79;79.67
70051;SHT30;57391;51.306;22.680;2023-02-01T17:16:41;3.75;79.95
70051;SHT30;57391;51.306;22.680;2023-02-01T17:19:14;3.70;80.16
70051;SHT30;57391;51.306;22.680;2023-02-01T17:21:50;3.65;80.50
70051;SHT30;57391;51.306;22.680;2023-02-01T17:24:23;3.61;80.70
70051;SHT30;57391;51.306;22.680;2023-02-01T17:26:54;3.61;81.00
70051;SHT30;57391;51.306;22.680;2023-02-01T17:29:22;3.60;80.90
70051;SHT30;57391;51.306;22.680;2023-02-01T17:31:51;3.59;80.91
70051;SHT30;57391;51.306;22.680;2023-02-01T17:34:21;3.59;80.97
70051;SHT30;57391;51.306;22.680;2023-02-01T17:36:49;3.56;81.05
70051;SHT30;57391;51.306;22.680;2023-02-01T17:39:17;3.56;81.04
70051;SHT30;57391;51.306;22.680;2023-02-01T17:42:04;3.53;81.18
70051;SHT30;57391;51.306;22.680;2023-02-01T17:44:36;3.52;81.29
70051;SHT30;57391;51.306;22.680;2023-02-01T17:47:03;3.52;81.32
70051;SHT30;57391;51.306;22.680;2023-02-01T17:49:30;3.53;81.41
70051;SHT30;57391;51.306;22.680;2023-02-01T17:51:59;3.53;81.50
70051;SHT30;57391;51.306;22.680;2023-02-01T17:54:27;3.52;81.50
70051;SHT30;57391;51.306;22.680;2023-02-01T17:56:54;3.53;81.47
70051;SHT30;57391;51.306;22.680;2023-02-01T17:59:26;3.52;81.41
70051;SHT30;57391;51.306;22.680;2023-02-01T18:01:53;3.52;81.43
70051;SHT30;57391;51.306;22.680;2023-02-01T18:04:26;3.51;81.49
70051;SHT30;57391;51.306;22.680;2023-02-01T18:06:53;3.50;81.51
70051;SHT30;57391;51.306;22.680;2023-02-01T18:09:21;3.49;81.61
70051;SHT30;57391;51.306;22.680;2023-02-01T18:11:48;3.48;81.69
70051;SHT30;57391;51.306;22.680;2023-02-01T18:14:16;3.48;81.70
70051;SHT30;57391;51.306;22.680;2023-02-01T18:16:43;3.48;81.78
70051;SHT30;57391;51.306;22.680;2023-02-01T18:19:10;3.46;81.79
70051;SHT30;57391;51.306;22.680;2023-02-01T18:21:39;3.44;81.88
70051;SHT30;57391;51.306;22.680;2023-02-01T18:24:11;3.42;81.93
70051;SHT30;57391;51.306;22.680;2023-02-01T18:26:40;3.40;82.02
70051;SHT30;57391;51.306;22.680;2023-02-01T18:29:10;3.39;82.13
70051;SHT30;57391;51.306;22.680;2023-02-01T18:31:40;3.36;82.22
70051;SHT30;57391;51.306;22.680;2023-02-01T18:34:15;3.35;82.31
70051;SHT30;57391;51.306;22.680;2023-02-01T18:36:48;3.36;82.38
70051;SHT30;57391;51.306;22.680;2023-02-01T18:39:16;3.36;82.46
70051;SHT30;57391;51.306;22.680;2023-02-01T18:41:45;3.35;82.48
70051;SHT30;57391;51.306;22.680;2023-02-01T18:44:14;3.35;82.50
70051;SHT30;57391;51.306;22.680;2023-02-01T18:46:43;3.35;82.52
70051;SHT30;57391;51.306;22.680;2023-02-01T18:49:10;3.33;82.60
70051;SHT30;57391;51.306;22.680;2023-02-01T18:51:39;3.33;82.60
70051;SHT30;57391;51.306;22.680;2023-02-01T18:54:08;3.32;82.60
70051;SHT30;57391;51.306;22.680;2023-02-01T18:56:40;3.31;82.60
70051;SHT30;57391;51.306;22.680;2023-02-01T18:59:08;3.29;82.61
70051;SHT30;57391;51.306;22.680;2023-02-01T19:01:37;3.27;82.63
70051;SHT30;57391;51.306;22.680;2023-02-01T19:04:04;3.24;82.70
70051;SHT30;57391;51.306;22.680;2023-02-01T19:06:32;3.22;82.70
70051;SHT30;57391;51.306;22.680;2023-02-01T19:09:02;3.20;82.72